sensor_id;sensor_type;location;lat;lon;timestamp;pressure;altitude;pressure_sealevel;temperature;humidity
72570;BME280;60594;50.204;8.844;2022-09-09T00:01:58;99515.72;;;15.97;83.44
72570;BME280;60594;50.204;8.844;2022-09-09T00:04:32;99516.06;;;15.94;84.31
72570;BME280;60594;50.204;8.844;2022-09-09T00:07:04;99517.84;;;16.09;82.04
72570;BME280;60594;50.204;8.844;2022-09-09T00:09:46;99508.50;;;15.97;83.72
72570;BME280;60594;50.204;8.844;2022-09-09T00:15:22;99491.66;;;15.57;84.62
72570;BME280;60594;50.204;8.844;2022-09-09T00:18:03;99491.34;;;15.52;86.20
72570;BME280;60594;50.204;8.844;2022-09-09T00:23:30;99479.41;;;15.54;84.70
72570;BME280;60594;50.204;8.844;2022-09-09T00:29:02;99481.31;;;15.84;84.36
72570;BME280;60594;50.204;8.844;2022-09-09T00:31:31;99474.44;;;15.82;84.21
72570;BME280;60594;50.204;8.844;2022-09-09T00:34:13;99481.97;;;15.94;82.71
72570;BME280;60594;50.204;8.844;2022-09-09T00:36:41;99482.34;;;15.83;83.40
72570;BME280;60594;50.204;8.844;2022-09-09T00:39:16;99474.53;;;15.96;83.45
72570;BME280;60594;50.204;8.844;2022-09-09T00:44:37;99473.81;;;16.10;82.19
72570;BME280;60594;50.204;8.844;2022-09-09T00:50:03;99475.41;;;15.97;81.70
72570;BME280;60594;50.204;8.844;2022-09-09T00:52:40;99470.13;;;15.65;81.27
72570;BME280;60594;50.204;8.844;2022-09-09T00:55:20;99470.94;;;15.73;80.99
72570;BME280;60594;50.204;8.844;2022-09-09T00:57:52;99480.38;;;15.69;82.18
72570;BME280;60594;50.204;8.844;2022-09-09T01:00:27;99480.31;;;15.85;82.04
72570;BME280;60594;50.204;8.844;2022-09-09T01:05:45;99485.41;;;15.72;82.02
72570;BME280;60594;50.204;8.844;2022-09-09T01:11:25;99483.00;;;15.85;81.05
72570;BME280;60594;50.204;8.844;2022-09-09T01:14:01;99485.16;;;15.35;81.53
72570;BME280;60594;50.204;8.844;2022-09-09T01:16:33;99492.34;;;15.59;81.85
72570;BME280;60594;50.204;8.844;2022-09-09T01:19:01;99489.81;;;15.57;82.07
72570;BME280;60594;50.204;8.844;2022-09-09T01:21:50;99488.19;;;15.16;83.58
72570;BME280;60594;50.204;8.844;2022-09-09T01:24:27;99493.69;;;15.23;83.75
72570;BME280;60594;50.204;8.844;2022-09-09T01:27:18;99485.47;;;15.32;83.47
72570;BME280;60594;50.204;8.844;2022-09-09T01:29:46;99492.34;;;15.43;82.81
72570;BME280;60594;50.204;8.844;2022-09-09T01:32:42;99485.78;;;15.45;82.71
72570;BME280;60594;50.204;8.844;2022-09-09T01:35:42;99488.31;;;15.47;82.61
72570;BME280;60594;50.204;8.844;2022-09-09T01:38:12;99481.41;;;15.52;82.79
72570;BME280;60594;50.204;8.844;2022-09-09T01:40:40;99482.78;;;15.48;83.45
72570;BME280;60594;50.204;8.844;2022-09-09T01:43:06;99484.78;;;15.54;82.53
72570;BME280;60594;50.204;8.844;2022-09-09T01:45:34;99484.63;;;15.40;83.72
72570;BME280;60594;50.204;8.844;2022-09-09T01:48:02;99469.19;;;15.18;83.37
72570;BME280;60594;50.204;8.844;2022-09-09T01:50:44;99486.84;;;14.96;84.34
72570;BME280;60594;50.204;8.844;2022-09-09T01:53:11;99491.53;;;15.02;84.38
72570;BME280;60594;50.204;8.844;2022-09-09T01:55:40;99485.13;;;14.79;84.57
72570;BME280;60594;50.204;8.844;2022-09-09T02:03:47;99492.69;;;14.68;85.14
72570;BME280;60594;50.204;8.844;2022-09-09T02:06:30;99483.78;;;14.75;85.14
72570;BME280;60594;50.204;8.844;2022-09-09T02:09:06;99479.78;;;14.71;84.76
72570;BME280;60594;50.204;8.844;2022-09-09T02:11:34;99467.38;;;14.70;84.74
72570;BME280;60594;50.204;8.844;2022-09-09T02:14:14;99482.47;;;14.87;84.88
72570;BME280;60594;50.204;8.844;2022-09-09T02:16:59;99486.69;;;14.82;84.27
72570;BME280;60594;50.204;8.844;2022-09-09T02:19:45;99490.50;;;14.71;84.78
72570;BME280;60594;50.204;8.844;2022-09-09T02:22:28;99486.16;;;14.62;85.49
72570;BME280;60594;50.204;8.844;2022-09-09T02:24:59;99490.88;;;14.76;85.15
72570;BME280;60594;50.204;8.844;2022-09-09T02:27:29;99489.00;;;14.85;85.21
72570;BME280;60594;50.204;8.844;2022-09-09T02:29:56;99485.00;;;14.89;84.66
72570;BME280;60594;50.204;8.844;2022-09-09T02:32:39;99492.88;;;15.14;84.40
72570;BME280;60594;50.204;8.844;2022-09-09T02:35:13;99490.50;;;15.11;84.10
72570;BME280;60594;50.204;8.844;2022-09-09T02:37:42;99490.31;;;15.29;84.16
72570;BME280;60594;50.204;8.844;2022-09-09T02:40:13;99489.34;;;15.38;83.38
72570;BME280;60594;50.204;8.844;2022-09-09T02:42:48;99490.31;;;15.29;83.77
72570;BME280;60594;50.204;8.844;2022-09-09T02:45:20;99502.06;;;15.28;82.60
72570;BME280;60594;50.204;8.844;2022-09-09T02:48:11;99485.00;;;14.97;83.67
72570;BME280;60594;50.204;8.844;2022-09-09T02:50:54;99489.19;;;15.07;84.70
72570;BME280;60594;50.204;8.844;2022-09-09T02:56:09;99502.56;;;14.67;85.70
72570;BME280;60594;50.204;8.844;2022-09-09T02:58:42;99493.50;;;14.68;86.66
72570;BME280;60594;50.204;8.844;2022-09-09T03:01:08;99488.66;;;14.96;87.23
72570;BME280;60594;50.204;8.844;2022-09-09T03:03:35;99483.97;;;14.98;88.49
72570;BME280;60594;50.204;8.844;2022-09-09T03:06:07;99485.81;;;14.65;89.55
72570;BME280;60594;50.204;8.844;2022-09-09T03:08:33;99504.38;;;14.35;91.72
72570;BME280;60594;50.204;8.844;2022-09-09T03:11:01;99507.19;;;14.25;92.73
72570;BME280;60594;50.204;8.844;2022-09-09T03:13:28;99495.41;;;14.18;92.20
72570;BME280;60594;50.204;8.844;2022-09-09T03:15:55;99496.41;;;14.17;93.32
72570;BME280;60594;50.204;8.844;2022-09-09T03:18:21;99493.38;;;14.20;93.46
72570;BME280;60594;50.204;8.844;2022-09-09T03:20:51;99500.88;;;14.50;92.40
72570;BME280;60594;50.204;8.844;2022-09-09T03:23:20;99489.66;;;14.55;91.33
72570;BME280;60594;50.204;8.844;2022-09-09T03:25:51;99486.31;;;14.53;92.42
72570;BME280;60594;50.204;8.844;2022-09-09T03:28:22;99472.19;;;14.43;91.54
72570;BME280;60594;50.204;8.844;2022-09-09T03:30:50;99455.25;;;14.42;89.74
72570;BME280;60594;50.204;8.844;2022-09-09T03:33:17;99469.34;;;14.36;91.89
72570;BME280;60594;50.204;8.844;2022-09-09T03:35:46;99466.50;;;14.30;91.71
72570;BME280;60594;50.204;8.844;2022-09-09T03:38:15;99457.28;;;14.24;91.38
72570;BME280;60594;50.204;8.844;2022-09-09T03:40:53;99455.56;;;14.23;92.34
72570;BME280;60594;50.204;8.844;2022-09-09T03:43:28;99465.91;;;14.18;91.61
72570;BME280;60594;50.204;8.844;2022-09-09T03:45:55;99466.56;;;14.20;92.27
72570;BME280;60594;50.204;8.844;2022-09-09T03:48:26;99458.03;;;14.17;92.05
72570;BME280;60594;50.204;8.844;2022-09-09T03:50:55;99474.28;;;14.15;91.22
72570;BME280;60594;50.204;8.844;2022-09-09T03:53:27;99483.00;;;14.17;91.14
72570;BME280;60594;50.204;8.844;2022-09-09T03:55:55;99474.28;;;14.15;91.54
72570;BME280;60594;50.204;8.844;2022-09-09T03:58:25;99483.38;;;14.22;91.21
72570;BME280;60594;50.204;8.844;2022-09-09T04:01:14;99476.03;;;14.32;91.39
72570;BME280;60594;50.204;8.844;2022-09-09T04:03:44;99474.22;;;14.41;91.11
72570;BME280;60594;50.204;8.844;2022-09-09T04:06:14;99466.38;;;14.55;90.62
72570;BME280;60594;50.204;8.844;2022-09-09T04:08:43;99466.84;;;14.59;89.90
72570;BME280;60594;50.204;8.844;2022-09-09T04:11:14;99463.34;;;14.58;90.71
72570;BME280;60594;50.204;8.844;2022-09-09T04:13:41;99471.34;;;14.42;90.30
72570;BME280;60594;50.204;8.844;2022-09-09T04:16:11;99464.31;;;14.33;91.44
72570;BME280;60594;50.204;8.844;2022-09-09T04:18:40;99460.78;;;14.33;91.61
72570;BME280;60594;50.204;8.844;2022-09-09T04:21:08;99465.22;;;14.16;91.22
72570;BME280;60594;50.204;8.844;2022-09-09T04:23:35;99463.22;;;14.10;92.22
72570;BME280;60594;50.204;8.844;2022-09-09T04:26:02;99468.59;;;14.10;91.61
72570;BME280;60594;50.204;8.844;2022-09-09T04:28:32;99475.28;;;14.14;92.16
72570;BME280;60594;50.204;8.844;2022-09-09T04:31:16;99480.97;;;14.11;92.25
72570;BME280;60594;50.204;8.844;2022-09-09T04:33:45;99472.94;;;14.11;92.45
72570;BME280;60594;50.204;8.844;2022-09-09T04:36:13;99480.28;;;14.09;92.00
72570;BME280;60594;50.204;8.844;2022-09-09T04:38:39;99470.41;;;14.10;91.55
72570;BME280;60594;50.204;8.844;2022-09-09T04:41:06;99466.88;;;14.09;91.69
72570;BME280;60594;50.204;8.844;2022-09-09T04:43:34;99471.25;;;14.10;91.37
72570;BME280;60594;50.204;8.844;2022-09-09T04:46:03;99464.75;;;14.21;91.73
72570;BME280;60594;50.204;8.844;2022-09-09T04:48:30;99468.75;;;14.17;91.57
72570;BME280;60594;50.204;8.844;2022-09-09T04:50:59;99470.44;;;14.18;91.68
72570;BME280;60594;50.204;8.844;2022-09-09T04:53:27;99460.41;;;14.20;91.26
72570;BME280;60594;50.204;8.844;2022-09-09T04:56:04;99476.38;;;14.29;91.54
72570;BME280;60594;50.204;8.844;2022-09-09T04:58:34;99476.88;;;14.33;91.36
72570;BME280;60594;50.204;8.844;2022-09-09T05:01:15;99460.47;;;14.36;90.66
72570;BME280;60594;50.204;8.844;2022-09-09T05:03:45;99471.34;;;14.42;91.12
72570;BME280;60594;50.204;8.844;2022-09-09T05:06:18;99472.03;;;14.44;91.18
72570;BME280;60594;50.204;8.844;2022-09-09T05:08:47;99467.00;;;14.41;91.66
72570;BME280;60594;50.204;8.844;2022-09-09T05:11:19;99475.91;;;14.42;90.71
72570;BME280;60594;50.204;8.844;2022-09-09T05:13:46;99471.72;;;14.39;90.64
72570;BME280;60594;50.204;8.844;2022-09-09T05:16:14;99483.78;;;14.43;91.21
72570;BME280;60594;50.204;8.844;2022-09-09T05:18:41;99496.16;;;14.44;89.99
72570;BME280;60594;50.204;8.844;2022-09-09T05:21:10;99495.16;;;14.45;90.60
72570;BME280;60594;50.204;8.844;2022-09-09T05:23:36;99505.06;;;14.45;91.06
72570;BME280;60594;50.204;8.844;2022-09-09T05:26:03;99500.03;;;14.42;90.61
72570;BME280;60594;50.204;8.844;2022-09-09T05:28:30;99502.88;;;14.40;90.40
72570;BME280;60594;50.204;8.844;2022-09-09T05:31:02;99503.53;;;14.42;90.46
72570;BME280;60594;50.204;8.844;2022-09-09T05:33:35;99501.03;;;14.41;90.37
72570;BME280;60594;50.204;8.844;2022-09-09T05:36:04;99515.78;;;14.45;89.79
72570;BME280;60594;50.204;8.844;2022-09-09T05:38:32;99514.09;;;14.44;90.35
72570;BME280;60594;50.204;8.844;2022-09-09T05:41:02;99521.31;;;14.43;89.80
72570;BME280;60594;50.204;8.844;2022-09-09T05:43:29;99520.94;;;14.38;90.12
72570;BME280;60594;50.204;8.844;2022-09-09T05:46:06;99532.69;;;14.37;89.88
72570;BME280;60594;50.204;8.844;2022-09-09T05:48:36;99532.19;;;14.42;89.96
72570;BME280;60594;50.204;8.844;2022-09-09T05:51:05;99534.19;;;14.40;89.71
72570;BME280;60594;50.204;8.844;2022-09-09T05:53:32;99529.16;;;14.37;89.90
72570;BME280;60594;50.204;8.844;2022-09-09T05:56:04;99531.88;;;14.45;89.82
72570;BME280;60594;50.204;8.844;2022-09-09T05:58:33;99534.03;;;14.49;89.84
72570;BME280;60594;50.204;8.844;2022-09-09T06:03:36;99544.13;;;14.55;89.92
72570;BME280;60594;50.204;8.844;2022-09-09T06:06:05;99546.81;;;14.63;89.45
72570;BME280;60594;50.204;8.844;2022-09-09T06:08:36;99542.97;;;14.66;89.11
72570;BME280;60594;50.204;8.844;2022-09-09T06:11:09;99551.19;;;14.64;89.35
72570;BME280;60594;50.204;8.844;2022-09-09T06:13:37;99540.97;;;14.68;89.48
72570;BME280;60594;50.204;8.844;2022-09-09T06:16:09;99540.66;;;14.71;89.34
72570;BME280;60594;50.204;8.844;2022-09-09T06:18:38;99543.50;;;14.77;89.24
72570;BME280;60594;50.204;8.844;2022-09-09T06:21:08;99543.19;;;14.88;88.59
72570;BME280;60594;50.204;8.844;2022-09-09T06:23:35;99541.03;;;15.08;88.07
72570;BME280;60594;50.204;8.844;2022-09-09T06:28:29;99547.88;;;15.34;87.70
72570;BME280;60594;50.204;8.844;2022-09-09T06:31:06;99544.88;;;15.53;86.56
72570;BME280;60594;50.204;8.844;2022-09-09T06:33:35;99544.19;;;15.59;86.17
72570;BME280;60594;50.204;8.844;2022-09-09T06:36:03;99540.97;;;15.72;84.78
72570;BME280;60594;50.204;8.844;2022-09-09T06:38:31;99544.47;;;15.88;84.07
72570;BME280;60594;50.204;8.844;2022-09-09T06:40:58;99540.41;;;15.92;83.99
72570;BME280;60594;50.204;8.844;2022-09-09T06:43:26;99534.16;;;16.08;84.07
72570;BME280;60594;50.204;8.844;2022-09-09T06:45:59;99533.72;;;16.27;82.88
72570;BME280;60594;50.204;8.844;2022-09-09T06:48:27;99535.34;;;16.36;82.90
72570;BME280;60594;50.204;8.844;2022-09-09T06:51:11;99534.00;;;16.48;81.84
72570;BME280;60594;50.204;8.844;2022-09-09T06:53:41;99538.66;;;16.54;81.19
72570;BME280;60594;50.204;8.844;2022-09-09T06:56:31;99535.38;;;16.66;80.69
72570;BME280;60594;50.204;8.844;2022-09-09T06:59:05;99534.16;;;16.77;81.07
72570;BME280;60594;50.204;8.844;2022-09-09T07:01:34;99539.78;;;16.90;79.98
72570;BME280;60594;50.204;8.844;2022-09-09T07:04:04;99542.13;;;16.93;79.32
72570;BME280;60594;50.204;8.844;2022-09-09T07:06:36;99538.31;;;17.02;78.64
72570;BME280;60594;50.204;8.844;2022-09-09T07:09:06;99533.91;;;17.09;78.09
72570;BME280;60594;50.204;8.844;2022-09-09T07:11:41;99537.81;;;17.07;77.98
72570;BME280;60594;50.204;8.844;2022-09-09T07:14:08;99538.41;;;16.94;78.62
72570;BME280;60594;50.204;8.844;2022-09-09T07:16:36;99532.00;;;16.95;78.79
72570;BME280;60594;50.204;8.844;2022-09-09T07:19:04;99529.09;;;17.05;78.37
72570;BME280;60594;50.204;8.844;2022-09-09T07:21:32;99533.97;;;17.01;78.49
72570;BME280;60594;50.204;8.844;2022-09-09T07:23:59;99539.78;;;16.90;78.33
72570;BME280;60594;50.204;8.844;2022-09-09T07:26:29;99539.59;;;16.92;78.82
72570;BME280;60594;50.204;8.844;2022-09-09T07:28:56;99540.78;;;17.12;77.34
72570;BME280;60594;50.204;8.844;2022-09-09T07:33:50;99554.81;;;17.07;77.10
72570;BME280;60594;50.204;8.844;2022-09-09T07:36:24;99542.91;;;17.02;76.88
72570;BME280;60594;50.204;8.844;2022-09-09T07:39:13;99556.34;;;17.02;77.67
72570;BME280;60594;50.204;8.844;2022-09-09T07:41:45;99552.63;;;17.03;77.46
72570;BME280;60594;50.204;8.844;2022-09-09T07:44:18;99562.56;;;17.02;77.78
72570;BME280;60594;50.204;8.844;2022-09-09T07:46:49;99556.72;;;16.99;78.20
72570;BME280;60594;50.204;8.844;2022-09-09T07:49:20;99557.00;;;17.04;77.46
72570;BME280;60594;50.204;8.844;2022-09-09T07:51:47;99551.84;;;16.94;78.01
72570;BME280;60594;50.204;8.844;2022-09-09T07:54:17;99552.22;;;17.14;76.16
72570;BME280;60594;50.204;8.844;2022-09-09T07:56:51;99561.00;;;17.08;76.83
72570;BME280;60594;50.204;8.844;2022-09-09T07:59:20;99567.28;;;17.23;75.94
72570;BME280;60594;50.204;8.844;2022-09-09T08:01:50;99565.34;;;17.17;76.79
72570;BME280;60594;50.204;8.844;2022-09-09T08:04:22;99565.63;;;16.99;76.72
72570;BME280;60594;50.204;8.844;2022-09-09T08:06:53;99569.50;;;16.97;76.92
72570;BME280;60594;50.204;8.844;2022-09-09T08:09:21;99567.25;;;17.08;76.59
72570;BME280;60594;50.204;8.844;2022-09-09T08:11:51;99581.94;;;17.20;76.98
72570;BME280;60594;50.204;8.844;2022-09-09T08:14:17;99576.34;;;17.07;77.30
72570;BME280;60594;50.204;8.844;2022-09-09T08:16:54;99586.38;;;17.13;77.41
72570;BME280;60594;50.204;8.844;2022-09-09T08:19:22;99588.06;;;17.14;77.31
72570;BME280;60594;50.204;8.844;2022-09-09T08:21:49;99590.81;;;17.06;77.90
72570;BME280;60594;50.204;8.844;2022-09-09T08:24:17;99586.94;;;17.09;77.93
72570;BME280;60594;50.204;8.844;2022-09-09T08:26:48;99595.84;;;17.32;76.75
72570;BME280;60594;50.204;8.844;2022-09-09T08:29:17;99589.53;;;17.39;75.63
72570;BME280;60594;50.204;8.844;2022-09-09T08:31:51;99596.28;;;17.21;76.33
72570;BME280;60594;50.204;8.844;2022-09-09T08:34:19;99603.66;;;17.27;77.07
72570;BME280;60594;50.204;8.844;2022-09-09T08:36:48;99607.09;;;17.43;76.06
72570;BME280;60594;50.204;8.844;2022-09-09T08:39:17;99601.72;;;17.58;75.71
72570;BME280;60594;50.204;8.844;2022-09-09T08:41:55;99600.88;;;17.57;74.91
72570;BME280;60594;50.204;8.844;2022-09-09T08:50:17;99606.44;;;17.56;74.69
72570;BME280;60594;50.204;8.844;2022-09-09T08:53:00;99603.81;;;17.70;74.41
72570;BME280;60594;50.204;8.844;2022-09-09T08:55:40;99612.47;;;17.80;73.32
72570;BME280;60594;50.204;8.844;2022-09-09T08:58:14;99599.91;;;17.73;72.91
72570;BME280;60594;50.204;8.844;2022-09-09T09:06:59;99602.63;;;18.02;72.57
72570;BME280;60594;50.204;8.844;2022-09-09T09:12:27;99588.47;;;17.85;72.70
72570;BME280;60594;50.204;8.844;2022-09-09T09:14:59;99592.22;;;17.84;72.32
72570;BME280;60594;50.204;8.844;2022-09-09T09:17:28;99598.25;;;17.86;72.41
72570;BME280;60594;50.204;8.844;2022-09-09T09:19:58;99593.25;;;17.98;72.19
72570;BME280;60594;50.204;8.844;2022-09-09T09:22:33;99589.81;;;18.18;71.53
72570;BME280;60594;50.204;8.844;2022-09-09T09:25:27;99595.34;;;18.39;69.83
72570;BME280;60594;50.204;8.844;2022-09-09T09:31:01;99589.44;;;18.21;70.30
72570;BME280;60594;50.204;8.844;2022-09-09T09:33:54;99590.25;;;18.22;70.16
72570;BME280;60594;50.204;8.844;2022-09-09T09:36:43;99584.53;;;18.39;69.59
72570;BME280;60594;50.204;8.844;2022-09-09T09:39:29;99580.53;;;18.50;68.74
72570;BME280;60594;50.204;8.844;2022-09-09T09:42:09;99579.97;;;18.54;68.86
72570;BME280;60594;50.204;8.844;2022-09-09T09:44:37;99576.16;;;18.49;69.63
72570;BME280;60594;50.204;8.844;2022-09-09T09:49:39;99577.56;;;18.45;69.12
72570;BME280;60594;50.204;8.844;2022-09-09T09:52:22;99584.31;;;18.55;68.28
72570;BME280;60594;50.204;8.844;2022-09-09T09:54:50;99583.91;;;18.73;66.88
72570;BME280;60594;50.204;8.844;2022-09-09T09:57:24;99591.06;;;18.80;65.69
72570;BME280;60594;50.204;8.844;2022-09-09T10:00:19;99584.06;;;18.50;67.27
72570;BME280;60594;50.204;8.844;2022-09-09T10:02:55;99575.84;;;18.29;67.32
72570;BME280;60594;50.204;8.844;2022-09-09T10:05:27;99589.34;;;18.29;67.33
72570;BME280;60594;50.204;8.844;2022-09-09T10:08:09;99588.69;;;18.27;68.93
72570;BME280;60594;50.204;8.844;2022-09-09T10:11:22;99594.84;;;18.21;71.16
72570;BME280;60594;50.204;8.844;2022-09-09T10:14:01;99590.53;;;18.12;72.69
72570;BME280;60594;50.204;8.844;2022-09-09T10:19:37;99591.91;;;17.65;71.88
72570;BME280;60594;50.204;8.844;2022-09-09T10:22:25;99598.38;;;18.07;70.29
72570;BME280;60594;50.204;8.844;2022-09-09T10:33:44;99597.34;;;19.86;63.58
72570;BME280;60594;50.204;8.844;2022-09-09T10:36:24;99581.47;;;20.45;61.01
72570;BME280;60594;50.204;8.844;2022-09-09T10:39:04;99580.50;;;20.59;61.54
72570;BME280;60594;50.204;8.844;2022-09-09T10:44:38;99578.59;;;20.93;60.54
72570;BME280;60594;50.204;8.844;2022-09-09T10:50:06;99579.28;;;20.21;63.75
72570;BME280;60594;50.204;8.844;2022-09-09T10:53:01;99572.09;;;19.79;64.78
72570;BME280;60594;50.204;8.844;2022-09-09T10:55:41;99568.13;;;20.37;64.62
72570;BME280;60594;50.204;8.844;2022-09-09T10:58:18;99557.56;;;20.48;63.73
72570;BME280;60594;50.204;8.844;2022-09-09T11:00:49;99539.22;;;21.04;61.43
72570;BME280;60594;50.204;8.844;2022-09-09T11:03:25;99554.09;;;20.67;62.21
72570;BME280;60594;50.204;8.844;2022-09-09T11:05:56;99572.66;;;20.30;63.50
72570;BME280;60594;50.204;8.844;2022-09-09T11:08:26;99580.81;;;20.08;67.52
72570;BME280;60594;50.204;8.844;2022-09-09T11:13:53;99592.91;;;16.65;79.92
72570;BME280;60594;50.204;8.844;2022-09-09T11:16:28;99576.41;;;15.11;89.61
72570;BME280;60594;50.204;8.844;2022-09-09T11:21:55;99594.47;;;14.77;95.14
72570;BME280;60594;50.204;8.844;2022-09-09T11:24:41;99580.41;;;14.83;100.00
72570;BME280;60594;50.204;8.844;2022-09-09T11:27:15;99576.25;;;15.13;100.00
72570;BME280;60594;50.204;8.844;2022-09-09T11:35:31;99565.63;;;16.99;100.00
72570;BME280;60594;50.204;8.844;2022-09-09T11:40:56;99558.00;;;17.48;94.14
72570;BME280;60594;50.204;8.844;2022-09-09T11:43:29;99552.84;;;17.38;93.20
72570;BME280;60594;50.204;8.844;2022-09-09T11:46:01;99541.50;;;17.65;93.83
72570;BME280;60594;50.204;8.844;2022-09-09T11:48:34;99541.66;;;18.01;87.77
72570;BME280;60594;50.204;8.844;2022-09-09T11:51:36;99546.47;;;17.91;89.99
72570;BME280;60594;50.204;8.844;2022-09-09T11:53:58;99551.13;;;18.11;90.51
72570;BME280;60594;50.204;8.844;2022-09-09T11:56:44;99548.50;;;18.61;86.32
72570;BME280;60594;50.204;8.844;2022-09-09T11:59:20;99533.59;;;18.65;85.20
72570;BME280;60594;50.204;8.844;2022-09-09T12:02:02;99548.78;;;18.87;82.98
72570;BME280;60594;50.204;8.844;2022-09-09T12:04:33;99551.47;;;18.87;77.59
72570;BME280;60594;50.204;8.844;2022-09-09T12:09:50;99531.66;;;19.22;75.23
72570;BME280;60594;50.204;8.844;2022-09-09T12:12:23;99535.19;;;19.44;72.15
72570;BME280;60594;50.204;8.844;2022-09-09T12:17:43;99545.56;;;18.63;72.73
72570;BME280;60594;50.204;8.844;2022-09-09T12:20:22;99548.06;;;18.43;72.58
72570;BME280;60594;50.204;8.844;2022-09-09T12:28:39;99553.09;;;17.06;83.11
72570;BME280;60594;50.204;8.844;2022-09-09T12:33:45;99543.59;;;17.18;80.88
72570;BME280;60594;50.204;8.844;2022-09-09T12:36:21;99543.53;;;17.26;84.44
72570;BME280;60594;50.204;8.844;2022-09-09T12:38:49;99524.06;;;17.39;83.06
72570;BME280;60594;50.204;8.844;2022-09-09T12:41:25;99533.81;;;17.62;81.27
72570;BME280;60594;50.204;8.844;2022-09-09T12:44:08;99533.53;;;17.72;81.41
72570;BME280;60594;50.204;8.844;2022-09-09T12:46:39;99524.25;;;17.74;81.21
72570;BME280;60594;50.204;8.844;2022-09-09T12:51:55;99523.88;;;17.77;82.17
72570;BME280;60594;50.204;8.844;2022-09-09T12:54:23;99532.06;;;17.84;79.79
72570;BME280;60594;50.204;8.844;2022-09-09T12:56:50;99535.13;;;17.81;80.45
72570;BME280;60594;50.204;8.844;2022-09-09T12:59:23;99541.16;;;17.83;77.35
72570;BME280;60594;50.204;8.844;2022-09-09T13:02:23;99550.06;;;17.69;77.28
72570;BME280;60594;50.204;8.844;2022-09-09T13:04:50;99538.34;;;17.39;76.17
72570;BME280;60594;50.204;8.844;2022-09-09T13:07:19;99546.22;;;17.04;74.41
72570;BME280;60594;50.204;8.844;2022-09-09T13:09:47;99561.97;;;16.92;75.59
72570;BME280;60594;50.204;8.844;2022-09-09T13:12:21;99577.28;;;16.61;82.47
72570;BME280;60594;50.204;8.844;2022-09-09T13:14:53;99568.47;;;15.90;82.21
72570;BME280;60594;50.204;8.844;2022-09-09T13:17:35;99546.56;;;15.14;89.01
72570;BME280;60594;50.204;8.844;2022-09-09T13:20:02;99541.50;;;14.87;91.14
72570;BME280;60594;50.204;8.844;2022-09-09T13:22:35;99542.16;;;14.81;92.36
72570;BME280;60594;50.204;8.844;2022-09-09T13:28:03;99540.81;;;14.69;93.38
72570;BME280;60594;50.204;8.844;2022-09-09T13:30:32;99525.38;;;14.71;91.90
72570;BME280;60594;50.204;8.844;2022-09-09T13:33:04;99534.47;;;14.94;91.91
72570;BME280;60594;50.204;8.844;2022-09-09T13:35:30;99538.16;;;15.09;95.25
72570;BME280;60594;50.204;8.844;2022-09-09T13:37:58;99546.91;;;15.35;94.50
72570;BME280;60594;50.204;8.844;2022-09-09T13:40:29;99534.47;;;15.50;93.26
72570;BME280;60594;50.204;8.844;2022-09-09T13:42:57;99545.84;;;15.76;93.64
72570;BME280;60594;50.204;8.844;2022-09-09T13:45:25;99551.00;;;15.94;92.32
72570;BME280;60594;50.204;8.844;2022-09-09T13:47:55;99548.94;;;16.04;92.81
72570;BME280;60594;50.204;8.844;2022-09-09T13:50:25;99541.69;;;16.12;90.34
72570;BME280;60594;50.204;8.844;2022-09-09T13:52:53;99532.91;;;16.18;88.73
72570;BME280;60594;50.204;8.844;2022-09-09T13:55:22;99530.38;;;16.25;88.46
72570;BME280;60594;50.204;8.844;2022-09-09T14:00:18;99530.84;;;16.89;88.06
72570;BME280;60594;50.204;8.844;2022-09-09T14:02:46;99530.22;;;17.10;84.18
72570;BME280;60594;50.204;8.844;2022-09-09T14:05:12;99531.66;;;17.35;86.00
72570;BME280;60594;50.204;8.844;2022-09-09T14:07:39;99534.97;;;17.45;81.84
72570;BME280;60594;50.204;8.844;2022-09-09T14:10:06;99546.72;;;17.67;84.06
72570;BME280;60594;50.204;8.844;2022-09-09T14:12:34;99545.53;;;17.84;77.70
72570;BME280;60594;50.204;8.844;2022-09-09T14:15:04;99533.09;;;17.83;80.89
72570;BME280;60594;50.204;8.844;2022-09-09T14:17:32;99553.25;;;18.01;73.86
72570;BME280;60594;50.204;8.844;2022-09-09T14:19:58;99557.34;;;17.97;74.52
72570;BME280;60594;50.204;8.844;2022-09-09T14:22:25;99557.06;;;17.92;74.23
72570;BME280;60594;50.204;8.844;2022-09-09T14:24:53;99561.91;;;17.97;75.33
72570;BME280;60594;50.204;8.844;2022-09-09T14:27:22;99555.19;;;17.93;74.12
72570;BME280;60594;50.204;8.844;2022-09-09T14:29:48;99555.78;;;17.88;75.37
72570;BME280;60594;50.204;8.844;2022-09-09T14:32:16;99547.75;;;17.66;74.19
72570;BME280;60594;50.204;8.844;2022-09-09T14:34:42;99562.25;;;17.65;72.52
72570;BME280;60594;50.204;8.844;2022-09-09T14:37:09;99557.47;;;17.52;73.50
72570;BME280;60594;50.204;8.844;2022-09-09T14:39:36;99530.34;;;17.31;73.08
72570;BME280;60594;50.204;8.844;2022-09-09T14:42:16;99543.09;;;17.37;74.60
72570;BME280;60594;50.204;8.844;2022-09-09T14:44:43;99543.75;;;17.39;73.97
72570;BME280;60594;50.204;8.844;2022-09-09T14:47:09;99542.81;;;17.32;74.38
72570;BME280;60594;50.204;8.844;2022-09-09T14:49:36;99537.03;;;17.35;74.26
72570;BME280;60594;50.204;8.844;2022-09-09T14:52:04;99532.88;;;17.33;73.54
72570;BME280;60594;50.204;8.844;2022-09-09T14:54:33;99520.31;;;17.25;73.70
72570;BME280;60594;50.204;8.844;2022-09-09T14:56:59;99534.06;;;17.30;74.93
72570;BME280;60594;50.204;8.844;2022-09-09T14:59:26;99528.16;;;17.35;72.94
72570;BME280;60594;50.204;8.844;2022-09-09T15:01:53;99530.28;;;17.39;74.94
72570;BME280;60594;50.204;8.844;2022-09-09T15:04:20;99523.56;;;17.35;74.59
72570;BME280;60594;50.204;8.844;2022-09-09T15:06:46;99523.56;;;17.35;73.12
72570;BME280;60594;50.204;8.844;2022-09-09T15:09:15;99526.75;;;17.39;72.42
72570;BME280;60594;50.204;8.844;2022-09-09T15:11:41;99505.47;;;17.29;74.19
72570;BME280;60594;50.204;8.844;2022-09-09T15:14:08;99513.59;;;17.44;73.19
72570;BME280;60594;50.204;8.844;2022-09-09T15:16:35;99505.06;;;17.55;72.33
72570;BME280;60594;50.204;8.844;2022-09-09T15:19:02;99510.94;;;17.73;73.20